sensor_id;sensor_type;location;lat;lon;timestamp;pressure;altitude;pressure_sealevel;temperature;humidity
53719;BME280;39616;48.872;9.390;2022-09-02T00:01:49;98424.34;;;13.12;100.00
53719;BME280;39616;48.872;9.390;2022-09-02T00:04:22;98419.53;;;13.09;100.00
53719;BME280;39616;48.872;9.390;2022-09-02T00:06:53;98416.59;;;13.05;100.00
53719;BME280;39616;48.872;9.390;2022-09-02T00:09:25;98419.94;;;13.02;100.00
53719;BME280;39616;48.872;9.390;2022-09-02T00:11:56;98413.34;;;12.94;100.00
53719;BME280;39616;48.872;9.390;2022-09-02T00:14:34;98417.28;;;12.88;100.00
53719;BME280;39616;48.872;9.390;2022-09-02T00:17:05;98414.50;;;12.79;100.00
53719;BME280;39616;48.872;9.390;2022-09-02T00:19:35;98412.16;;;12.64;100.00
53719;BME280;39616;48.872;9.390;2022-09-02T00:22:07;98409.19;;;12.52;100.00
53719;BME280;39616;48.872;9.390;2022-09-02T00:24:38;98407.75;;;12.41;100.00
53719;BME280;39616;48.872;9.390;2022-09-02T00:27:09;98407.28;;;12.39;100.00
53719;BME280;39616;48.872;9.390;2022-09-02T00:29:39;98401.66;;;12.35;100.00
53719;BME280;39616;48.872;9.390;2022-09-02T00:32:09;98402.97;;;12.38;100.00
53719;BME280;39616;48.872;9.390;2022-09-02T00:34:40;98395.59;;;12.38;100.00
53719;BME280;39616;48.872;9.390;2022-09-02T00:37:10;98398.53;;;12.42;100.00
53719;BME280;39616;48.872;9.390;2022-09-02T00:39:42;98396.28;;;12.44;100.00
53719;BME280;39616;48.872;9.390;2022-09-02T00:42:12;98389.75;;;12.45;100.00
53719;BME280;39616;48.872;9.390;2022-09-02T00:44:42;98389.94;;;12.48;100.00
53719;BME280;39616;48.872;9.390;2022-09-02T00:47:13;98386.59;;;12.51;100.00
53719;BME280;39616;48.872;9.390;2022-09-02T00:49:49;98381.16;;;12.51;100.00
53719;BME280;39616;48.872;9.390;2022-09-02T00:52:24;98381.78;;;12.48;100.00
53719;BME280;39616;48.872;9.390;2022-09-02T00:54:59;98383.28;;;12.41;100.00
53719;BME280;39616;48.872;9.390;2022-09-02T00:57:48;98381.91;;;12.29;100.00
53719;BME280;39616;48.872;9.390;2022-09-02T01:00:25;98381.34;;;12.19;100.00
53719;BME280;39616;48.872;9.390;2022-09-02T01:03:02;98389.41;;;12.10;100.00
53719;BME280;39616;48.872;9.390;2022-09-02T01:05:36;98385.38;;;12.07;100.00
53719;BME280;39616;48.872;9.390;2022-09-02T01:08:07;98388.09;;;12.07;100.00
53719;BME280;39616;48.872;9.390;2022-09-02T01:10:39;98391.94;;;12.06;100.00
53719;BME280;39616;48.872;9.390;2022-09-02T01:13:12;98388.72;;;12.04;100.00
53719;BME280;39616;48.872;9.390;2022-09-02T01:15:48;98387.91;;;12.04;100.00
53719;BME280;39616;48.872;9.390;2022-09-02T01:18:22;98388.34;;;11.97;100.00
53719;BME280;39616;48.872;9.390;2022-09-02T01:20:55;98389.03;;;11.89;100.00
53719;BME280;39616;48.872;9.390;2022-09-02T01:23:27;98386.41;;;11.84;100.00
53719;BME280;39616;48.872;9.390;2022-09-02T01:25:58;98379.16;;;11.79;100.00
53719;BME280;39616;48.872;9.390;2022-09-02T01:28:29;98381.56;;;11.81;100.00
53719;BME280;39616;48.872;9.390;2022-09-02T01:31:02;98380.28;;;11.78;100.00
53719;BME280;39616;48.872;9.390;2022-09-02T01:33:33;98383.00;;;11.78;100.00
53719;BME280;39616;48.872;9.390;2022-09-02T01:36:04;98388.22;;;11.75;100.00
53719;BME280;39616;48.872;9.390;2022-09-02T01:38:34;98381.88;;;11.79;100.00
53719;BME280;39616;48.872;9.390;2022-09-02T01:41:05;98378.56;;;11.82;100.00
53719;BME280;39616;48.872;9.390;2022-09-02T01:43:35;98376.63;;;11.83;100.00
53719;BME280;39616;48.872;9.390;2022-09-02T01:46:05;98380.38;;;11.87;100.00
53719;BME280;39616;48.872;9.390;2022-09-02T01:48:36;98380.66;;;11.85;100.00
53719;BME280;39616;48.872;9.390;2022-09-02T01:51:06;98378.47;;;11.88;100.00
53719;BME280;39616;48.872;9.390;2022-09-02T01:53:36;98375.56;;;11.84;100.00
53719;BME280;39616;48.872;9.390;2022-09-02T01:56:07;98380.75;;;11.80;100.00
53719;BME280;39616;48.872;9.390;2022-09-02T01:58:37;98378.16;;;11.75;100.00
53719;BME280;39616;48.872;9.390;2022-09-02T02:01:08;98381.75;;;11.71;100.00
53719;BME280;39616;48.872;9.390;2022-09-02T02:03:38;98379.56;;;11.73;100.00
53719;BME280;39616;48.872;9.390;2022-09-02T02:06:11;98384.47;;;11.71;100.00
53719;BME280;39616;48.872;9.390;2022-09-02T02:08:42;98386.69;;;11.69;100.00
53719;BME280;39616;48.872;9.390;2022-09-02T02:11:21;98379.47;;;11.64;100.00
53719;BME280;39616;48.872;9.390;2022-09-02T02:13:52;98376.16;;;11.67;100.00
53719;BME280;39616;48.872;9.390;2022-09-02T02:16:23;98379.34;;;11.69;100.00
53719;BME280;39616;48.872;9.390;2022-09-02T02:18:53;98378.03;;;11.67;100.00
53719;BME280;39616;48.872;9.390;2022-09-02T02:21:24;98375.03;;;11.68;100.00
53719;BME280;39616;48.872;9.390;2022-09-02T02:23:54;98377.03;;;11.63;100.00
53719;BME280;39616;48.872;9.390;2022-09-02T02:26:24;98373.84;;;11.60;100.00
53719;BME280;39616;48.872;9.390;2022-09-02T02:28:55;98370.91;;;11.57;100.00
53719;BME280;39616;48.872;9.390;2022-09-02T02:31:26;98372.31;;;11.54;100.00
53719;BME280;39616;48.872;9.390;2022-09-02T02:33:56;98378.53;;;11.55;100.00
53719;BME280;39616;48.872;9.390;2022-09-02T02:36:27;98377.22;;;11.52;100.00
53719;BME280;39616;48.872;9.390;2022-09-02T02:38:57;98366.88;;;11.54;100.00
53719;BME280;39616;48.872;9.390;2022-09-02T02:41:31;98366.28;;;11.57;100.00
53719;BME280;39616;48.872;9.390;2022-09-02T02:44:02;98368.69;;;11.59;100.00
53719;BME280;39616;48.872;9.390;2022-09-02T02:46:33;98368.59;;;11.64;100.00
53719;BME280;39616;48.872;9.390;2022-09-02T02:49:04;98367.16;;;11.67;100.00
53719;BME280;39616;48.872;9.390;2022-09-02T02:51:35;98366.88;;;11.68;100.00
53719;BME280;39616;48.872;9.390;2022-09-02T02:54:06;98364.16;;;11.68;100.00
53719;BME280;39616;48.872;9.390;2022-09-02T02:56:36;98350.00;;;11.71;100.00
53719;BME280;39616;48.872;9.390;2022-09-02T02:59:07;98359.75;;;11.72;100.00
53719;BME280;39616;48.872;9.390;2022-09-02T03:01:37;98356.22;;;11.72;100.00
53719;BME280;39616;48.872;9.390;2022-09-02T03:04:07;98359.75;;;11.72;100.00
53719;BME280;39616;48.872;9.390;2022-09-02T03:06:38;98361.66;;;11.72;100.00
53719;BME280;39616;48.872;9.390;2022-09-02T03:09:08;98363.56;;;11.71;100.00
53719;BME280;39616;48.872;9.390;2022-09-02T03:11:39;98359.84;;;11.67;100.00
53719;BME280;39616;48.872;9.390;2022-09-02T03:14:09;98367.88;;;11.58;100.00
53719;BME280;39616;48.872;9.390;2022-09-02T03:16:40;98362.25;;;11.55;100.00
53719;BME280;39616;48.872;9.390;2022-09-02T03:19:10;98357.63;;;11.55;100.00
53719;BME280;39616;48.872;9.390;2022-09-02T03:21:43;98360.34;;;11.55;100.00
53719;BME280;39616;48.872;9.390;2022-09-02T03:24:13;98353.63;;;11.53;100.00
53719;BME280;39616;48.872;9.390;2022-09-02T03:26:46;98353.91;;;11.51;100.00
53719;BME280;39616;48.872;9.390;2022-09-02T03:29:16;98359.03;;;11.53;100.00
53719;BME280;39616;48.872;9.390;2022-09-02T03:31:47;98366.06;;;11.54;100.00
53719;BME280;39616;48.872;9.390;2022-09-02T03:34:17;98358.72;;;11.54;100.00
53719;BME280;39616;48.872;9.390;2022-09-02T03:36:47;98361.75;;;11.53;100.00
53719;BME280;39616;48.872;9.390;2022-09-02T03:39:18;98361.75;;;11.53;100.00
53719;BME280;39616;48.872;9.390;2022-09-02T03:41:49;98359.53;;;11.55;100.00
53719;BME280;39616;48.872;9.390;2022-09-02T03:44:19;98361.75;;;11.53;100.00
53719;BME280;39616;48.872;9.390;2022-09-02T03:46:50;98360.94;;;11.52;100.00
53719;BME280;39616;48.872;9.390;2022-09-02T03:49:20;98362.03;;;11.51;100.00
53719;BME280;39616;48.872;9.390;2022-09-02T03:51:51;98360.94;;;11.52;100.00
53719;BME280;39616;48.872;9.390;2022-09-02T03:54:21;98355.50;;;11.52;100.00
53719;BME280;39616;48.872;9.390;2022-09-02T03:56:52;98357.41;;;11.52;100.00
53719;BME280;39616;48.872;9.390;2022-09-02T03:59:23;98351.97;;;11.52;100.00
53719;BME280;39616;48.872;9.390;2022-09-02T04:01:54;98353.09;;;11.51;100.00
53719;BME280;39616;48.872;9.390;2022-09-02T04:04:24;98352.91;;;11.47;100.00
53719;BME280;39616;48.872;9.390;2022-09-02T04:06:55;98352.50;;;11.40;100.00
53719;BME280;39616;48.872;9.390;2022-09-02T04:09:26;98355.00;;;11.36;100.00
53719;BME280;39616;48.872;9.390;2022-09-02T04:11:56;98348.56;;;11.32;100.00
53719;BME280;39616;48.872;9.390;2022-09-02T04:14:27;98350.16;;;11.33;100.00
53719;BME280;39616;48.872;9.390;2022-09-02T04:16:58;98350.47;;;11.32;100.00
53719;BME280;39616;48.872;9.390;2022-09-02T04:19:28;98347.56;;;11.28;100.00
53719;BME280;39616;48.872;9.390;2022-09-02T04:21:58;98342.13;;;11.28;100.00
53719;BME280;39616;48.872;9.390;2022-09-02T04:24:29;98347.34;;;11.25;100.00
53719;BME280;39616;48.872;9.390;2022-09-02T04:27:00;98345.16;;;11.27;100.00
53719;BME280;39616;48.872;9.390;2022-09-02T04:29:31;98344.31;;;11.26;100.00
53719;BME280;39616;48.872;9.390;2022-09-02T04:32:01;98347.56;;;11.28;100.00
53719;BME280;39616;48.872;9.390;2022-09-02T04:34:32;98347.03;;;11.26;100.00
53719;BME280;39616;48.872;9.390;2022-09-02T04:37:02;98346.56;;;11.24;100.00
53719;BME280;39616;48.872;9.390;2022-09-02T04:39:32;98347.03;;;11.26;100.00
53719;BME280;39616;48.872;9.390;2022-09-02T04:42:03;98345.44;;;11.25;100.00
53719;BME280;39616;48.872;9.390;2022-09-02T04:44:34;98341.13;;;11.24;100.00
53719;BME280;39616;48.872;9.390;2022-09-02T04:47:04;98351.97;;;11.24;100.00
53719;BME280;39616;48.872;9.390;2022-09-02T04:49:34;98349.53;;;11.23;100.00
53719;BME280;39616;48.872;9.390;2022-09-02T04:52:05;98341.13;;;11.24;100.00
53719;BME280;39616;48.872;9.390;2022-09-02T04:54:35;98347.34;;;11.25;100.00
53719;BME280;39616;48.872;9.390;2022-09-02T04:57:06;98346.03;;;11.22;100.00
53719;BME280;39616;48.872;9.390;2022-09-02T04:59:36;98344.44;;;11.21;100.00
53719;BME280;39616;48.872;9.390;2022-09-02T05:02:07;98353.69;;;11.20;100.00
53719;BME280;39616;48.872;9.390;2022-09-02T05:04:37;98354.28;;;11.17;100.00
53719;BME280;39616;48.872;9.390;2022-09-02T05:07:08;98350.56;;;11.13;100.00
53719;BME280;39616;48.872;9.390;2022-09-02T05:09:38;98354.88;;;11.14;100.00
53719;BME280;39616;48.872;9.390;2022-09-02T05:12:11;98358.59;;;11.18;100.00
53719;BME280;39616;48.872;9.390;2022-09-02T05:14:41;98353.69;;;11.20;100.00
53719;BME280;39616;48.872;9.390;2022-09-02T05:17:12;98348.75;;;11.22;100.00
53719;BME280;39616;48.872;9.390;2022-09-02T05:19:43;98350.78;;;11.30;100.00
53719;BME280;39616;48.872;9.390;2022-09-02T05:22:14;98343.84;;;11.38;100.00
53719;BME280;39616;48.872;9.390;2022-09-02T05:24:44;98350.50;;;11.46;100.00
53719;BME280;39616;48.872;9.390;2022-09-02T05:27:15;98351.69;;;11.53;100.00
53719;BME280;39616;48.872;9.390;2022-09-02T05:29:46;98355.63;;;11.61;100.00
53719;BME280;39616;48.872;9.390;2022-09-02T05:32:16;98354.09;;;11.69;100.00
53719;BME280;39616;48.872;9.390;2022-09-02T05:34:46;98348.56;;;11.74;100.00
53719;BME280;39616;48.872;9.390;2022-09-02T05:37:17;98348.16;;;11.80;100.00
53719;BME280;39616;48.872;9.390;2022-09-02T05:39:47;98358.84;;;11.91;100.00
53719;BME280;39616;48.872;9.390;2022-09-02T05:42:18;98346.66;;;12.02;100.00
53719;BME280;39616;48.872;9.390;2022-09-02T05:44:49;98345.81;;;12.15;100.00
53719;BME280;39616;48.872;9.390;2022-09-02T05:47:19;98353.13;;;12.28;100.00
53719;BME280;39616;48.872;9.390;2022-09-02T05:49:50;98346.84;;;12.42;100.00
53719;BME280;39616;48.872;9.390;2022-09-02T05:52:20;98345.69;;;12.56;100.00
53719;BME280;39616;48.872;9.390;2022-09-02T05:54:51;98350.75;;;12.72;100.00
53719;BME280;39616;48.872;9.390;2022-09-02T05:57:21;98345.72;;;12.88;100.00
53719;BME280;39616;48.872;9.390;2022-09-02T05:59:52;98344.53;;;13.02;100.00
53719;BME280;39616;48.872;9.390;2022-09-02T06:02:26;98347.97;;;13.17;99.15
53719;BME280;39616;48.872;9.390;2022-09-02T06:04:56;98347.91;;;13.31;98.09
53719;BME280;39616;48.872;9.390;2022-09-02T06:07:26;98354.38;;;13.43;97.26
53719;BME280;39616;48.872;9.390;2022-09-02T06:09:59;98344.00;;;13.54;95.92
53719;BME280;39616;48.872;9.390;2022-09-02T06:12:29;98345.81;;;13.67;95.79
53719;BME280;39616;48.872;9.390;2022-09-02T06:15:00;98344.56;;;13.82;94.71
53719;BME280;39616;48.872;9.390;2022-09-02T06:17:32;98344.63;;;13.99;92.95
53719;BME280;39616;48.872;9.390;2022-09-02T06:20:02;98343.66;;;14.13;91.05
53719;BME280;39616;48.872;9.390;2022-09-02T06:22:33;98344.81;;;14.29;90.83
53719;BME280;39616;48.872;9.390;2022-09-02T06:25:04;98347.53;;;14.46;88.82
53719;BME280;39616;48.872;9.390;2022-09-02T06:27:36;98343.38;;;14.58;88.05
53719;BME280;39616;48.872;9.390;2022-09-02T06:30:07;98340.03;;;14.69;85.41
53719;BME280;39616;48.872;9.390;2022-09-02T06:32:37;98342.72;;;14.87;86.59
53719;BME280;39616;48.872;9.390;2022-09-02T06:35:08;98328.53;;;15.02;84.90
53719;BME280;39616;48.872;9.390;2022-09-02T06:37:39;98337.34;;;15.16;84.36
53719;BME280;39616;48.872;9.390;2022-09-02T06:40:10;98333.25;;;15.31;82.73
53719;BME280;39616;48.872;9.390;2022-09-02T06:42:42;98339.66;;;15.44;82.84
53719;BME280;39616;48.872;9.390;2022-09-02T06:45:13;98329.78;;;15.60;83.29
53719;BME280;39616;48.872;9.390;2022-09-02T06:47:43;98332.78;;;15.76;82.57
53719;BME280;39616;48.872;9.390;2022-09-02T06:50:15;98330.19;;;16.09;82.34
53719;BME280;39616;48.872;9.390;2022-09-02T06:52:45;98330.50;;;16.29;78.17
53719;BME280;39616;48.872;9.390;2022-09-02T06:55:16;98339.31;;;16.55;77.97
53719;BME280;39616;48.872;9.390;2022-09-02T06:57:47;98336.16;;;16.65;75.93
53719;BME280;39616;48.872;9.390;2022-09-02T07:00:17;98337.13;;;17.03;75.57
53719;BME280;39616;48.872;9.390;2022-09-02T07:02:48;98334.09;;;17.29;74.09
53719;BME280;39616;48.872;9.390;2022-09-02T07:05:38;98329.75;;;17.52;71.69
53719;BME280;39616;48.872;9.390;2022-09-02T07:08:09;98323.16;;;17.78;70.53
53719;BME280;39616;48.872;9.390;2022-09-02T07:10:40;98323.16;;;18.02;70.10
53719;BME280;39616;48.872;9.390;2022-09-02T07:13:10;98315.94;;;18.10;68.04
53719;BME280;39616;48.872;9.390;2022-09-02T07:15:41;98325.34;;;18.37;66.77
53719;BME280;39616;48.872;9.390;2022-09-02T07:18:11;98328.72;;;18.18;66.01
53719;BME280;39616;48.872;9.390;2022-09-02T07:20:44;98327.69;;;18.10;66.23
53719;BME280;39616;48.872;9.390;2022-09-02T07:23:15;98326.19;;;18.25;65.98
53719;BME280;39616;48.872;9.390;2022-09-02T07:25:45;98314.94;;;18.43;65.88
53719;BME280;39616;48.872;9.390;2022-09-02T07:28:16;98320.28;;;18.51;64.89
53719;BME280;39616;48.872;9.390;2022-09-02T07:30:47;98310.28;;;18.59;64.17
53719;BME280;39616;48.872;9.390;2022-09-02T07:33:17;98312.00;;;18.64;64.71
53719;BME280;39616;48.872;9.390;2022-09-02T07:35:49;98311.09;;;18.72;64.16
53719;BME280;39616;48.872;9.390;2022-09-02T07:38:21;98305.81;;;18.95;62.91
53719;BME280;39616;48.872;9.390;2022-09-02T07:40:51;98306.88;;;19.06;62.62
53719;BME280;39616;48.872;9.390;2022-09-02T07:43:22;98313.81;;;19.31;61.69
53719;BME280;39616;48.872;9.390;2022-09-02T07:45:52;98311.78;;;19.13;62.01
53719;BME280;39616;48.872;9.390;2022-09-02T07:48:25;98302.91;;;19.51;61.03
53719;BME280;39616;48.872;9.390;2022-09-02T07:50:57;98302.06;;;19.98;59.85
53719;BME280;39616;48.872;9.390;2022-09-02T07:53:27;98306.06;;;20.00;59.73
53719;BME280;39616;48.872;9.390;2022-09-02T07:55:58;98302.88;;;19.98;58.99
53719;BME280;39616;48.872;9.390;2022-09-02T07:58:29;98299.59;;;19.93;58.29
53719;BME280;39616;48.872;9.390;2022-09-02T08:01:00;98296.09;;;20.12;58.60
53719;BME280;39616;48.872;9.390;2022-09-02T08:03:30;98301.53;;;20.27;57.76
53719;BME280;39616;48.872;9.390;2022-09-02T08:06:01;98307.88;;;20.47;57.02
53719;BME280;39616;48.872;9.390;2022-09-02T08:08:32;98291.13;;;20.56;56.22
53719;BME280;39616;48.872;9.390;2022-09-02T08:11:03;98301.41;;;20.79;56.33
53719;BME280;39616;48.872;9.390;2022-09-02T08:13:35;98288.22;;;21.11;55.01
53719;BME280;39616;48.872;9.390;2022-09-02T08:16:05;98291.41;;;21.13;55.57
53719;BME280;39616;48.872;9.390;2022-09-02T08:18:35;98298.28;;;21.22;53.98
53719;BME280;39616;48.872;9.390;2022-09-02T08:21:06;98295.00;;;21.36;53.46
53719;BME280;39616;48.872;9.390;2022-09-02T08:23:36;98297.97;;;21.28;52.71
53719;BME280;39616;48.872;9.390;2022-09-02T08:26:08;98289.84;;;21.58;52.55
53719;BME280;39616;48.872;9.390;2022-09-02T08:28:40;98297.09;;;22.23;51.76
53719;BME280;39616;48.872;9.390;2022-09-02T08:31:10;98300.34;;;22.28;50.65
53719;BME280;39616;48.872;9.390;2022-09-02T08:33:40;98287.81;;;22.72;49.80
53719;BME280;39616;48.872;9.390;2022-09-02T08:36:11;98295.53;;;22.55;49.61
53719;BME280;39616;48.872;9.390;2022-09-02T08:38:44;98290.59;;;22.72;49.18
53719;BME280;39616;48.872;9.390;2022-09-02T08:41:30;98290.28;;;22.77;49.34
53719;BME280;39616;48.872;9.390;2022-09-02T08:44:05;98289.50;;;23.13;47.57
53719;BME280;39616;48.872;9.390;2022-09-02T08:46:36;98294.88;;;22.99;46.69
53719;BME280;39616;48.872;9.390;2022-09-02T08:49:10;98287.41;;;23.03;47.04
53719;BME280;39616;48.872;9.390;2022-09-02T08:51:46;98282.72;;;22.74;46.52
53719;BME280;39616;48.872;9.390;2022-09-02T08:54:38;98283.22;;;22.49;47.22
53719;BME280;39616;48.872;9.390;2022-09-02T08:57:11;98285.84;;;22.38;47.23
53719;BME280;39616;48.872;9.390;2022-09-02T08:59:42;98280.19;;;22.24;47.08
53719;BME280;39616;48.872;9.390;2022-09-02T09:10:29;98286.13;;;22.60;45.52
53719;BME280;39616;48.872;9.390;2022-09-02T09:16:39;98278.94;;;23.26;44.33
53719;BME280;39616;48.872;9.390;2022-09-02T09:19:15;98273.97;;;23.02;43.30
53719;BME280;39616;48.872;9.390;2022-09-02T09:21:46;98279.38;;;22.91;43.26
53719;BME280;39616;48.872;9.390;2022-09-02T09:24:27;98262.34;;;22.89;43.13
53719;BME280;39616;48.872;9.390;2022-09-02T09:27:00;98261.41;;;22.74;43.11
53719;BME280;39616;48.872;9.390;2022-09-02T09:29:32;98257.22;;;22.87;43.48
53719;BME280;39616;48.872;9.390;2022-09-02T09:32:04;98258.41;;;22.53;43.13
53719;BME280;39616;48.872;9.390;2022-09-02T09:35:00;98257.91;;;22.77;44.07
53719;BME280;39616;48.872;9.390;2022-09-02T09:37:37;98248.75;;;23.10;42.88
53719;BME280;39616;48.872;9.390;2022-09-02T09:42:48;98246.00;;;24.24;41.05
53719;BME280;39616;48.872;9.390;2022-09-02T09:50:44;98244.25;;;24.89;38.89
53719;BME280;39616;48.872;9.390;2022-09-02T09:53:34;98241.84;;;24.84;39.50
53719;BME280;39616;48.872;9.390;2022-09-02T09:56:20;98244.22;;;24.78;38.96
53719;BME280;39616;48.872;9.390;2022-09-02T09:58:52;98240.59;;;24.53;38.03
53719;BME280;39616;48.872;9.390;2022-09-02T10:01:27;98241.56;;;24.09;38.98
53719;BME280;39616;48.872;9.390;2022-09-02T10:04:02;98240.44;;;24.17;38.46
53719;BME280;39616;48.872;9.390;2022-09-02T10:06:43;98248.81;;;24.35;37.72
53719;BME280;39616;48.872;9.390;2022-09-02T10:11:58;98237.06;;;24.70;37.89
53719;BME280;39616;48.872;9.390;2022-09-02T10:14:42;98239.41;;;24.54;38.97
53719;BME280;39616;48.872;9.390;2022-09-02T10:20:17;98225.09;;;24.45;38.26
53719;BME280;39616;48.872;9.390;2022-09-02T10:22:54;98224.78;;;24.68;38.19
53719;BME280;39616;48.872;9.390;2022-09-02T10:28:24;98220.84;;;24.72;36.63
53719;BME280;39616;48.872;9.390;2022-09-02T10:34:20;98234.31;;;24.85;37.05
53719;BME280;39616;48.872;9.390;2022-09-02T10:42:45;98214.91;;;24.81;35.89
53719;BME280;39616;48.872;9.390;2022-09-02T10:45:30;98210.97;;;24.78;36.30
53719;BME280;39616;48.872;9.390;2022-09-02T10:48:14;98205.78;;;24.70;35.61
53719;BME280;39616;48.872;9.390;2022-09-02T10:56:04;98200.28;;;25.05;35.51
53719;BME280;39616;48.872;9.390;2022-09-02T10:58:57;98199.06;;;24.92;34.80
53719;BME280;39616;48.872;9.390;2022-09-02T11:01:56;98191.53;;;25.03;35.43
53719;BME280;39616;48.872;9.390;2022-09-02T11:04:49;98185.59;;;24.73;35.13
53719;BME280;39616;48.872;9.390;2022-09-02T11:07:27;98187.56;;;24.65;35.17
53719;BME280;39616;48.872;9.390;2022-09-02T11:10:05;98180.78;;;24.52;35.93
53719;BME280;39616;48.872;9.390;2022-09-02T11:12:43;98183.84;;;24.25;36.18
53719;BME280;39616;48.872;9.390;2022-09-02T11:15:18;98186.72;;;24.43;35.39
53719;BME280;39616;48.872;9.390;2022-09-02T11:17:58;98168.56;;;24.71;35.97
53719;BME280;39616;48.872;9.390;2022-09-02T11:20:55;98164.97;;;24.45;35.22
53719;BME280;39616;48.872;9.390;2022-09-02T11:23:40;98165.66;;;24.24;34.75
53719;BME280;39616;48.872;9.390;2022-09-02T11:26:34;98160.50;;;24.16;35.49
53719;BME280;39616;48.872;9.390;2022-09-02T11:29:17;98157.28;;;24.10;36.03
53719;BME280;39616;48.872;9.390;2022-09-02T11:34:46;98153.91;;;24.74;35.56
53719;BME280;39616;48.872;9.390;2022-09-02T11:37:28;98156.28;;;24.61;35.13
53719;BME280;39616;48.872;9.390;2022-09-02T11:40:09;98153.13;;;24.95;34.64
53719;BME280;39616;48.872;9.390;2022-09-02T11:48:45;98153.13;;;24.98;34.47
53719;BME280;39616;48.872;9.390;2022-09-02T11:54:17;98145.22;;;24.90;34.37
53719;BME280;39616;48.872;9.390;2022-09-02T11:56:57;98142.84;;;25.13;34.57
53719;BME280;39616;48.872;9.390;2022-09-02T12:02:40;98147.97;;;24.86;34.07
53719;BME280;39616;48.872;9.390;2022-09-02T12:08:03;98140.03;;;24.77;34.69
53719;BME280;39616;48.872;9.390;2022-09-02T12:13:40;98138.84;;;24.93;33.58
53719;BME280;39616;48.872;9.390;2022-09-02T12:21:24;98143.59;;;24.92;34.24
53719;BME280;39616;48.872;9.390;2022-09-02T12:31:51;98140.03;;;25.02;34.45
53719;BME280;39616;48.872;9.390;2022-09-02T12:34:50;98130.53;;;25.07;33.79
53719;BME280;39616;48.872;9.390;2022-09-02T12:37:51;98116.66;;;25.03;33.85
53719;BME280;39616;48.872;9.390;2022-09-02T12:40:24;98113.88;;;24.96;34.27
53719;BME280;39616;48.872;9.390;2022-09-02T12:42:58;98115.88;;;25.21;33.79
53719;BME280;39616;48.872;9.390;2022-09-02T12:45:31;98107.09;;;25.40;33.55
53719;BME280;39616;48.872;9.390;2022-09-02T12:48:10;98108.34;;;25.28;33.45
53719;BME280;39616;48.872;9.390;2022-09-02T12:50:52;98109.97;;;25.15;33.17
53719;BME280;39616;48.872;9.390;2022-09-02T12:56:21;98102.81;;;24.78;33.60
53719;BME280;39616;48.872;9.390;2022-09-02T12:58:56;98098.06;;;24.65;33.90
53719;BME280;39616;48.872;9.390;2022-09-02T13:10:35;98092.13;;;25.16;33.54
53719;BME280;39616;48.872;9.390;2022-09-02T13:16:32;98087.75;;;25.22;34.39
53719;BME280;39616;48.872;9.390;2022-09-02T13:19:11;98083.38;;;25.25;34.04
53719;BME280;39616;48.872;9.390;2022-09-02T13:28:00;98078.22;;;25.20;34.67
53719;BME280;39616;48.872;9.390;2022-09-02T13:33:08;98072.69;;;25.16;34.61
53719;BME280;39616;48.872;9.390;2022-09-02T13:35:40;98052.47;;;25.23;34.17
53719;BME280;39616;48.872;9.390;2022-09-02T13:38:12;98056.41;;;25.22;34.60
53719;BME280;39616;48.872;9.390;2022-09-02T13:40:43;98057.25;;;25.04;34.86
53719;BME280;39616;48.872;9.390;2022-09-02T13:45:45;98050.09;;;25.00;35.18
53719;BME280;39616;48.872;9.390;2022-09-02T13:48:20;98050.88;;;25.15;35.42
53719;BME280;39616;48.872;9.390;2022-09-02T13:50:53;98047.72;;;24.95;35.75
53719;BME280;39616;48.872;9.390;2022-09-02T13:55:59;98042.59;;;24.90;36.57
53719;BME280;39616;48.872;9.390;2022-09-02T14:01:29;98034.31;;;24.75;36.21
53719;BME280;39616;48.872;9.390;2022-09-02T14:04:04;98032.69;;;24.81;35.95
53719;BME280;39616;48.872;9.390;2022-09-02T14:06:39;98023.56;;;24.88;36.29
53719;BME280;39616;48.872;9.390;2022-09-02T14:09:19;98025.56;;;24.80;35.85
53719;BME280;39616;48.872;9.390;2022-09-02T14:11:51;98029.13;;;24.74;35.77
53719;BME280;39616;48.872;9.390;2022-09-02T14:14:23;98022.03;;;24.66;35.63
53719;BME280;39616;48.872;9.390;2022-09-02T14:17:17;98008.94;;;24.77;35.82
53719;BME280;39616;48.872;9.390;2022-09-02T14:19:49;98012.09;;;24.90;36.56
53719;BME280;39616;48.872;9.390;2022-09-02T14:22:26;98001.81;;;24.83;36.47
53719;BME280;39616;48.872;9.390;2022-09-02T14:24:57;97990.72;;;24.72;36.48
53719;BME280;39616;48.872;9.390;2022-09-02T14:27:27;97988.75;;;24.76;35.89
53719;BME280;39616;48.872;9.390;2022-09-02T14:29:58;97989.16;;;24.71;36.66
53719;BME280;39616;48.872;9.390;2022-09-02T14:32:28;97983.63;;;24.64;36.87
53719;BME280;39616;48.872;9.390;2022-09-02T14:35:20;97980.44;;;24.48;36.33
53719;BME280;39616;48.872;9.390;2022-09-02T14:37:53;97972.13;;;24.37;36.74
53719;BME280;39616;48.872;9.390;2022-09-02T14:40:38;97967.38;;;24.34;37.00
53719;BME280;39616;48.872;9.390;2022-09-02T14:43:14;97962.25;;;24.47;37.50
53719;BME280;39616;48.872;9.390;2022-09-02T14:45:47;97965.78;;;24.62;37.14
53719;BME280;39616;48.872;9.390;2022-09-02T14:48:22;97963.00;;;24.69;37.40
53719;BME280;39616;48.872;9.390;2022-09-02T14:51:03;97952.34;;;24.56;37.02
53719;BME280;39616;48.872;9.390;2022-09-02T14:53:35;97957.50;;;24.44;37.45
53719;BME280;39616;48.872;9.390;2022-09-02T14:56:08;97961.06;;;24.19;37.72
53719;BME280;39616;48.872;9.390;2022-09-02T14:58:38;97958.28;;;24.19;38.40
53719;BME280;39616;48.872;9.390;2022-09-02T15:01:09;97952.34;;;24.31;37.83
53719;BME280;39616;48.872;9.390;2022-09-02T15:03:39;97963.44;;;24.24;38.33
53719;BME280;39616;48.872;9.390;2022-09-02T15:06:09;97971.31;;;24.29;38.15
53719;BME280;39616;48.872;9.390;2022-09-02T15:08:40;97963.00;;;24.26;37.51
53719;BME280;39616;48.872;9.390;2022-09-02T15:11:10;97965.00;;;24.25;37.77
53719;BME280;39616;48.872;9.390;2022-09-02T15:13:43;97961.44;;;24.25;37.77
53719;BME280;39616;48.872;9.390;2022-09-02T15:16:13;97962.22;;;24.22;37.48